createdAt,value
2023-04-28T00:01:26.723Z,2.55
2023-04-28T00:11:48.914Z,2.78
2023-04-28T00:22:10.225Z,2.30
2023-04-28T00:32:31.199Z,2.80
2023-04-28T00:42:53.077Z,3.05
2023-04-28T00:53:14.877Z,2.42
2023-04-28T01:03:38.836Z,2.45
2023-04-28T01:14:00.517Z,2.78
2023-04-28T01:24:25.205Z,2.72
2023-04-28T01:34:47.834Z,2.42
2023-04-28T01:45:10.956Z,2.78
2023-04-28T01:55:32.614Z,2.80
2023-04-28T02:05:55.574Z,2.78
2023-04-28T02:16:17.088Z,2.45
2023-04-28T02:26:38.102Z,2.67
2023-04-28T02:36:59.136Z,2.88
2023-04-28T02:47:21.682Z,2.58
2023-04-28T02:57:42.981Z,2.60
2023-04-28T03:08:04.788Z,2.78
2023-04-28T03:18:26.673Z,2.60
2023-04-28T03:28:49.947Z,2.70
2023-04-28T03:39:12.394Z,2.35
2023-04-28T03:49:33.559Z,2.97
2023-04-28T03:59:55.260Z,2.35
2023-04-28T04:10:17.394Z,2.53
2023-04-28T04:20:39.555Z,2.22
2023-04-28T04:31:00.955Z,2.35
2023-04-28T04:41:22.897Z,2.58
2023-04-28T04:51:51.240Z,2.25
2023-04-28T05:02:12.681Z,2.33
2023-04-28T05:12:34.344Z,2.15
2023-04-28T05:22:55.830Z,2.35
2023-04-28T05:33:17.720Z,2.35
2023-04-28T05:43:39.192Z,2.50
2023-04-28T05:54:04.079Z,2.25
2023-04-28T06:04:29.686Z,2.23
2023-04-28T06:14:55.439Z,2.53
2023-04-28T06:25:16.828Z,2.60
2023-04-28T06:35:40.181Z,2.50
2023-04-28T06:46:01.619Z,2.08
2023-04-28T06:56:23.806Z,2.47
2023-04-28T07:06:45.325Z,2.13
2023-04-28T07:17:06.586Z,2.22
2023-04-28T07:27:27.542Z,2.70
2023-04-28T07:37:48.906Z,2.47
2023-04-28T07:48:10.774Z,2.20
2023-04-28T07:58:33.297Z,2.03
2023-04-28T08:08:55.831Z,2.50
2023-04-28T08:19:17.023Z,2.47
2023-04-28T08:29:39.294Z,2.60
2023-04-28T08:40:02.474Z,2.72
2023-04-28T08:50:24.296Z,2.17
2023-04-28T09:00:45.478Z,2.47
2023-04-28T09:11:12.761Z,2.22
2023-04-28T09:21:33.926Z,2.10
2023-04-28T09:31:55.497Z,2.08
2023-04-28T09:42:36.610Z,2.40
2023-04-28T09:52:59.405Z,1.92
2023-04-28T10:03:24.215Z,2.35
2023-04-28T10:13:46.365Z,2.28
2023-04-28T10:24:15.236Z,2.00
2023-04-28T10:34:36.218Z,2.38
2023-04-28T10:44:57.792Z,2.05
2023-04-28T10:55:40.444Z,2.05
2023-04-28T11:06:25.782Z,2.13
2023-04-28T11:16:51.523Z,1.88
2023-04-28T11:27:24.239Z,2.20
2023-04-28T11:37:45.493Z,1.70
2023-04-28T11:48:25.198Z,1.70
2023-04-28T11:58:46.242Z,1.88
2023-04-28T12:09:18.170Z,2.13
2023-04-28T12:19:45.870Z,1.67
2023-04-28T12:30:22.222Z,1.70
2023-04-28T12:40:43.857Z,1.92
2023-04-28T12:51:04.940Z,1.80
2023-04-28T13:01:27.579Z,1.90
2023-04-28T13:11:48.898Z,1.63
2023-04-28T13:22:10.367Z,1.80
2023-04-28T13:32:31.971Z,2.13
2023-04-28T13:42:53.509Z,1.90
2023-04-28T13:53:15.619Z,1.85
2023-04-28T14:03:37.712Z,1.95
2023-04-28T14:13:59.209Z,2.03
2023-04-28T14:24:20.588Z,1.77
2023-04-28T14:34:43.049Z,1.95
2023-04-28T14:45:06.545Z,2.22
2023-04-28T14:55:28.319Z,2.03
2023-04-28T15:05:49.519Z,2.17
2023-04-28T15:16:10.875Z,2.08
2023-04-28T15:26:32.503Z,2.20
2023-04-28T15:36:56.930Z,2.65
2023-04-28T15:47:19.080Z,2.42
2023-04-28T15:57:40.454Z,2.60
2023-04-28T16:08:02.072Z,2.85
2023-04-28T16:18:24.125Z,3.00
2023-04-28T16:28:46.140Z,2.60
2023-04-28T16:39:07.452Z,2.90
2023-04-28T16:49:28.427Z,2.42
2023-04-28T16:59:51.093Z,2.67
2023-04-28T17:10:12.727Z,2.78
2023-04-28T17:20:33.977Z,2.88
2023-04-28T17:30:56.029Z,2.45
2023-04-28T17:41:17.437Z,2.70
2023-04-28T17:51:38.516Z,3.30
2023-04-28T18:01:59.884Z,2.75
2023-04-28T18:12:21.709Z,2.83
2023-04-28T18:22:42.706Z,2.53
2023-04-28T18:33:05.022Z,2.90
2023-04-28T18:43:28.079Z,2.90
2023-04-28T18:53:49.304Z,3.00
2023-04-28T19:04:10.838Z,2.83
2023-04-28T19:14:33.445Z,3.20
2023-04-28T19:24:54.357Z,3.08
2023-04-28T19:35:16.597Z,2.95
2023-04-28T19:45:38.544Z,3.20
2023-04-28T19:56:02.146Z,2.72
2023-04-28T20:06:23.713Z,2.92
2023-04-28T20:16:46.048Z,2.80
2023-04-28T20:27:07.464Z,2.70
2023-04-28T20:37:30.392Z,3.15
2023-04-28T20:47:52.538Z,3.33
2023-04-28T20:58:14.800Z,3.00
2023-04-28T21:08:36.611Z,2.83
2023-04-28T21:18:58.362Z,2.50
2023-04-28T21:29:19.433Z,3.05
2023-04-28T21:39:42.200Z,2.78
2023-04-28T21:50:04.054Z,2.72
2023-04-28T22:00:26.255Z,3.55
2023-04-28T22:10:47.224Z,3.83
2023-04-28T22:21:08.457Z,3.60
2023-04-28T22:31:29.880Z,3.20
2023-04-28T22:41:51.419Z,4.03
2023-04-28T22:52:13.041Z,3.22
2023-04-28T23:02:34.372Z,3.85
2023-04-28T23:12:56.034Z,4.03
2023-04-28T23:23:17.440Z,4.25
2023-04-28T23:33:38.400Z,4.45
2023-04-28T23:43:59.656Z,3.92
2023-04-28T23:54:20.952Z,4.72
